Index of /Factsandhistory/History/images

[ICO]NameLast modifiedSizeDescription

[DIR]Parent Directory  -
[   ]Thumbs.db05-Oct-2011 06:11 9.5K
[IMG]ptheadCropsey.jpg05-Oct-2011 06:11 40K
[IMG]middle_line.jpg05-Oct-2011 06:11 2.6K
[IMG]LibrarylogoNew.jpg05-Oct-2011 06:11 8.0K
[IMG]bg00.jpg05-Oct-2011 06:11 2.3K
[IMG]bullet001.gif05-Oct-2011 06:11 68
[IMG]WebpageBannerWideLeftSide.jpg05-Oct-2011 06:10 7.7K
[IMG]WebpageBannerWideLeftSideCropped.jpg05-Oct-2011 06:10 14K
[IMG]WebpageBannerWide.jpg05-Oct-2011 06:10 12K
[IMG]rect10295043.gif05-Oct-2011 06:10 59
[IMG]rect10228728.gif05-Oct-2011 06:10 59
[IMG]nav543879250i.gif05-Oct-2011 06:10 2.2K
[IMG]nav543879250a.gif05-Oct-2011 06:10 2.3K
[IMG]nav543709210i.gif05-Oct-2011 06:09 2.2K
[IMG]nav543709210a.gif05-Oct-2011 06:09 2.3K
[IMG]nav543512120i.gif05-Oct-2011 06:09 2.3K
[IMG]nav543512120a.gif05-Oct-2011 06:09 2.4K
[IMG]nav543269880i.gif05-Oct-2011 06:09 2.1K
[IMG]nav543269880a.gif05-Oct-2011 06:09 2.1K
[IMG]dot1.gif05-Oct-2011 06:09 59
[IMG]wpmhome.gif09-Sep-2010 13:28 14K
[IMG]welcome.jpg09-Sep-2010 13:28 6.5K
[IMG]tab_r1.gif09-Sep-2010 13:28 2.1K
[IMG]tab_r.gif09-Sep-2010 13:28 2.0K
[IMG]tab_o1.gif09-Sep-2010 13:28 2.1K
[IMG]tab_o.gif09-Sep-2010 13:28 2.0K
[IMG]tab_g1.gif09-Sep-2010 13:28 2.1K
[IMG]tab_g.gif09-Sep-2010 13:28 2.0K
[IMG]tab_b1.gif09-Sep-2010 13:28 2.1K
[IMG]tab_b.gif09-Sep-2010 13:28 2.0K
[IMG]pthead.jpg09-Sep-2010 13:28 36K
[IMG]dot.gif09-Sep-2010 13:28 292
[IMG]clip.gif09-Sep-2010 13:28 1.7K
[IMG]bottom102Edited.jpg09-Sep-2010 13:28 13K
[IMG]bottom102.jpg09-Sep-2010 13:28 9.3K
[IMG]WebpageBannerWideLeftSideWide.jpg09-Sep-2010 13:28 7.7K
[IMG]LibrarylogoNewShorter.jpg09-Sep-2010 13:28 14K
[IMG]HeaderSubPageTemplate.jpg09-Sep-2010 13:28 15K
[IMG]A12003721.jpg09-Sep-2010 13:28 15K

Apache Server at www.albertwisnerlibrary.org Port 80